Time;durP1;ratioP1;P1;durP2;ratioP2;P2;SDS_P1;SDS_P2;PMS_P1;PMS_P2;Temp;Humidity;BMP_temperature;BMP_pressure;BME280_temperature;BME280_humidity;BME280_pressure;Samples;Min_cycle;Max_cycle;Signal;HPM_P1;HPM_P2
2021/08/10 00:01:49;;;;;;;15.95;11.23;;;14.60;99.90;;;;;;4140541;28;20115;-81
2021/08/10 00:03:50;;;;;;;15.57;10.85;;;14.60;99.90;;;;;;4141114;28;20037;-81
2021/08/10 00:05:51;;;;;;;16.52;10.93;;;14.60;99.90;;;;;;4139208;28;20387;-79
2021/08/10 00:07:53;;;;;;;19.30;11.38;;;14.60;99.90;;;;;;4141349;28;20034;-81
2021/08/10 00:09:53;;;;;;;18.38;10.93;;;14.60;99.90;;;;;;4139841;28;20042;-81
2021/08/10 00:11:57;;;;;;;12.98;10.57;;;14.70;99.90;;;;;;4146547;28;20551;-82
2021/08/10 00:13:58;;;;;;;18.38;11.63;;;14.70;99.90;;;;;;4150278;28;20034;-81
2021/08/10 00:15:58;;;;;;;15.98;10.77;;;14.70;99.90;;;;;;4146066;28;20047;-81
2021/08/10 00:17:59;;;;;;;14.48;10.98;;;14.60;99.90;;;;;;4135838;28;20039;-81
2021/08/10 00:20:00;;;;;;;14.48;10.90;;;14.60;99.90;;;;;;4133373;28;20505;-80
2021/08/10 00:22:00;;;;;;;18.83;11.23;;;14.70;99.90;;;;;;4144120;28;20044;-81
2021/08/10 00:24:01;;;;;;;14.25;10.02;;;14.70;99.90;;;;;;4139172;28;20046;-80
2021/08/10 00:26:01;;;;;;;14.93;10.43;;;14.70;99.90;;;;;;4143197;28;20132;-81
2021/08/10 00:28:03;;;;;;;13.65;9.88;;;14.70;99.90;;;;;;4156012;28;20044;-81
2021/08/10 00:30:04;;;;;;;15.55;11.27;;;14.60;99.90;;;;;;4141470;28;20041;-81
2021/08/10 00:32:05;;;;;;;13.93;10.65;;;14.60;99.90;;;;;;4137034;28;20038;-82
2021/08/10 00:34:06;;;;;;;14.48;11.18;;;14.50;99.90;;;;;;4138133;28;20038;-81
2021/08/10 00:36:06;;;;;;;15.68;10.70;;;14.50;99.90;;;;;;4141547;28;20477;-82
2021/08/10 00:38:09;;;;;;;13.32;10.57;;;14.50;99.90;;;;;;4147066;28;20468;-81
2021/08/10 00:40:11;;;;;;;15.75;10.55;;;14.50;99.90;;;;;;4143331;28;20053;-81
2021/08/10 00:42:12;;;;;;;17.35;11.45;;;14.60;99.90;;;;;;4142527;28;20494;-81
2021/08/10 00:44:12;;;;;;;16.42;11.05;;;14.60;99.90;;;;;;4143438;28;20041;-81
2021/08/10 00:46:14;;;;;;;13.68;10.35;;;14.60;99.90;;;;;;4146085;28;20065;-81
2021/08/10 00:48:16;;;;;;;14.52;11.98;;;14.50;99.90;;;;;;4144089;28;20401;-81
2021/08/10 00:50:17;;;;;;;17.33;10.30;;;14.50;99.90;;;;;;4141401;28;20033;-81
2021/08/10 00:52:17;;;;;;;17.02;12.02;;;14.40;99.90;;;;;;4140160;28;20132;-81
2021/08/10 00:54:18;;;;;;;15.45;11.18;;;14.40;99.90;;;;;;4156964;28;20139;-81
2021/08/10 00:56:19;;;;;;;15.25;11.30;;;14.50;99.90;;;;;;4138400;28;20668;-82
2021/08/10 00:58:21;;;;;;;13.85;11.63;;;14.50;99.90;;;;;;4137897;28;20088;-81
2021/08/10 01:00:21;;;;;;;15.75;10.60;;;14.60;99.90;;;;;;4132473;28;20516;-81
2021/08/10 01:02:22;;;;;;;18.40;11.48;;;14.60;99.90;;;;;;4137709;28;20038;-81
2021/08/10 01:04:23;;;;;;;12.50;10.05;;;14.50;99.90;;;;;;4139612;28;20065;-81
2021/08/10 01:06:35;;;;;;;18.13;11.73;;;14.50;99.90;;;;;;4134860;28;20116;-80
2021/08/10 01:09:08;;;;;;;15.32;11.43;;;14.50;99.90;;;;;;4148321;28;20042;-81
2021/08/10 01:11:45;;;;;;;16.27;11.55;;;14.50;99.90;;;;;;4134533;28;20030;-81
2021/08/10 01:13:52;;;;;;;15.98;11.32;;;14.60;99.90;;;;;;4134689;28;20027;-80
2021/08/10 01:16:09;;;;;;;18.88;11.30;;;14.60;99.90;;;;;;4131908;28;20117;-81
2021/08/10 01:18:26;;;;;;;14.23;11.27;;;14.60;99.90;;;;;;4139130;28;20509;-81
2021/08/10 01:20:54;;;;;;;17.08;11.82;;;14.50;99.90;;;;;;4140195;28;20030;-81
2021/08/10 01:22:57;;;;;;;14.13;11.00;;;14.50;99.90;;;;;;4146882;28;20122;-80
2021/08/10 01:25:30;;;;;;;17.42;10.57;;;14.50;99.90;;;;;;4135537;28;20049;-80
2021/08/10 01:27:52;;;;;;;17.52;12.15;;;14.50;99.90;;;;;;4149856;28;20038;-81
2021/08/10 01:30:06;;;;;;;19.67;12.60;;;14.50;99.90;;;;;;4136031;28;20053;-81
2021/08/10 01:32:07;;;;;;;17.02;11.48;;;14.40;99.90;;;;;;4141007;28;20148;-81
2021/08/10 01:34:32;;;;;;;15.02;13.43;;;14.40;99.90;;;;;;4144346;28;20030;-80
2021/08/10 01:36:34;;;;;;;16.73;12.48;;;14.40;99.90;;;;;;4139922;28;20050;-80
2021/08/10 01:38:37;;;;;;;18.92;11.02;;;14.40;99.90;;;;;;4135132;28;20038;-80
2021/08/10 01:40:38;;;;;;;13.75;11.07;;;14.40;99.90;;;;;;4139205;28;20081;-79
2021/08/10 01:42:41;;;;;;;15.15;11.95;;;14.30;99.90;;;;;;4136527;28;20121;-80
2021/08/10 01:44:43;;;;;;;15.80;12.55;;;14.30;99.90;;;;;;4140565;28;20401;-80
2021/08/10 01:46:46;;;;;;;15.43;12.32;;;14.30;99.90;;;;;;4136190;28;20073;-80
2021/08/10 01:48:47;;;;;;;14.25;11.32;;;14.40;99.90;;;;;;4140448;28;20516;-81
2021/08/10 01:50:48;;;;;;;16.52;12.25;;;14.40;99.90;;;;;;4137885;28;20058;-80
2021/08/10 01:52:49;;;;;;;13.38;10.85;;;14.50;99.90;;;;;;4142596;28;20077;-81
2021/08/10 01:54:50;;;;;;;15.52;11.55;;;14.50;99.90;;;;;;4143051;28;20038;-80
2021/08/10 01:56:51;;;;;;;15.65;11.80;;;14.40;99.90;;;;;;4136523;28;20085;-80
2021/08/10 01:58:55;;;;;;;14.50;11.68;;;14.40;99.90;;;;;;4139698;28;20094;-80
2021/08/10 02:00:57;;;;;;;14.80;12.40;;;14.40;99.90;;;;;;4135141;28;20129;-81
2021/08/10 02:02:59;;;;;;;19.20;12.18;;;14.50;99.90;;;;;;4140930;28;20030;-80
2021/08/10 02:05:01;;;;;;;14.73;12.10;;;14.50;99.90;;;;;;4134446;28;20037;-79
2021/08/10 02:07:02;;;;;;;14.45;10.73;;;14.50;99.90;;;;;;4145932;28;20453;-79
2021/08/10 02:09:05;;;;;;;15.50;11.23;;;14.60;99.90;;;;;;4150768;28;20502;-80
2021/08/10 02:11:06;;;;;;;13.27;10.20;;;14.70;99.90;;;;;;4150666;28;20026;-80
2021/08/10 02:13:07;;;;;;;13.35;10.25;;;14.80;99.90;;;;;;4136340;28;20820;-80
2021/08/10 02:15:09;;;;;;;13.35;10.88;;;14.80;99.90;;;;;;4140870;28;20040;-80
2021/08/10 02:17:16;;;;;;;13.77;10.05;;;14.90;99.90;;;;;;4136020;28;20092;-80
2021/08/10 02:19:17;;;;;;;14.57;10.88;;;14.80;99.90;;;;;;4133491;28;20043;-80
2021/08/10 02:21:30;;;;;;;15.55;11.05;;;14.70;99.90;;;;;;4138888;28;20030;-80
2021/08/10 02:23:32;;;;;;;11.73;10.40;;;14.70;99.90;;;;;;4140754;28;20460;-79
2021/08/10 02:25:33;;;;;;;15.27;10.10;;;14.60;99.90;;;;;;4138291;28;20026;-80
2021/08/10 02:27:42;;;;;;;14.85;10.30;;;14.60;99.90;;;;;;4140587;28;20038;-80
2021/08/10 02:29:45;;;;;;;15.10;10.07;;;14.60;99.90;;;;;;4141544;28;20050;-81
2021/08/10 02:31:46;;;;;;;;;;;14.50;99.90;;;;;;4133960;28;20026;-82
2021/08/10 02:33:48;;;;;;;16.45;11.07;;;14.50;99.90;;;;;;4144755;28;20297;-80
2021/08/10 02:35:54;;;;;;;18.63;9.88;;;14.40;99.90;;;;;;4133861;28;20174;-80
2021/08/10 02:38:01;;;;;;;12.25;10.00;;;14.50;99.90;;;;;;4137282;28;20128;-80
2021/08/10 02:40:06;;;;;;;13.85;10.32;;;14.50;99.90;;;;;;4139998;28;20042;-79
2021/08/10 02:42:09;;;;;;;16.00;10.18;;;14.60;99.90;;;;;;4135038;28;20061;-81
2021/08/10 02:44:11;;;;;;;14.27;10.40;;;14.60;99.90;;;;;;4138760;28;20030;-80
2021/08/10 02:46:11;;;;;;;15.25;9.32;;;14.50;99.90;;;;;;4140530;28;20034;-81
2021/08/10 02:48:13;;;;;;;11.68;9.63;;;14.50;99.90;;;;;;4136814;28;20088;-79
2021/08/10 02:50:14;;;;;;;15.23;9.90;;;14.50;99.90;;;;;;4134655;28;20121;-81
2021/08/10 02:52:14;;;;;;;16.25;10.00;;;14.40;99.90;;;;;;4146639;28;20068;-81
2021/08/10 02:54:15;;;;;;;15.05;11.25;;;14.40;99.90;;;;;;4142551;28;20117;-82
2021/08/10 02:56:23;;;;;;;16.80;11.10;;;14.40;99.90;;;;;;4130265;28;20038;-78
2021/08/10 02:58:31;;;;;;;15.38;11.98;;;14.40;99.90;;;;;;4140104;28;20033;-80
2021/08/10 03:00:37;;;;;;;14.95;9.98;;;14.40;99.90;;;;;;4131511;28;20034;-80
2021/08/10 03:02:42;;;;;;;16.60;11.00;;;;;;;;;;4138737;28;20038;-81
2021/08/10 03:04:56;;;;;;;14.57;10.45;;;14.60;99.90;;;;;;4142448;28;20476;-80
2021/08/10 03:06:58;;;;;;;15.13;10.10;;;14.70;99.90;;;;;;4145128;28;20041;-81
2021/08/10 03:09:00;;;;;;;14.90;9.90;;;14.70;99.90;;;;;;4133568;28;20088;-81
2021/08/10 03:11:03;;;;;;;15.45;10.30;;;14.60;99.90;;;;;;4132940;28;20282;-81
2021/08/10 03:13:06;;;;;;;15.40;10.20;;;14.60;99.90;;;;;;4137938;28;20065;-81
2021/08/10 03:15:07;;;;;;;14.38;10.48;;;14.50;99.90;;;;;;4133058;28;20026;-81
2021/08/10 03:17:09;;;;;;;12.90;10.00;;;14.50;99.90;;;;;;4142984;28;20056;-81
2021/08/10 03:19:11;;;;;;;11.32;10.02;;;14.60;99.90;;;;;;4132351;28;20422;-81
2021/08/10 03:21:14;;;;;;;14.68;9.90;;;14.70;99.90;;;;;;4134431;28;20482;-80
2021/08/10 03:23:18;;;;;;;20.05;10.55;;;14.60;99.90;;;;;;4131807;28;20068;-81
2021/08/10 03:25:20;;;;;;;13.73;10.13;;;14.60;99.90;;;;;;4134401;28;20383;-81
2021/08/10 03:27:24;;;;;;;13.88;11.50;;;14.60;99.90;;;;;;4133831;28;20038;-80
2021/08/10 03:29:25;;;;;;;;;;;14.50;99.90;;;;;;4137058;28;20663;-81
2021/08/10 03:31:26;;;;;;;13.38;9.82;;;14.60;99.90;;;;;;4135146;28;19914;-78
2021/08/10 03:33:29;;;;;;;16.05;10.98;;;14.60;99.90;;;;;;4150580;28;20110;-81
2021/08/10 03:35:30;;;;;;;19.90;11.52;;;14.50;99.90;;;;;;4138906;28;20036;-80
2021/08/10 03:37:32;;;;;;;15.52;10.88;;;14.50;99.90;;;;;;4137413;28;20477;-80
2021/08/10 03:39:33;;;;;;;18.15;11.52;;;14.40;99.90;;;;;;4140147;28;20408;-81
2021/08/10 03:41:34;;;;;;;15.63;10.02;;;14.40;99.90;;;;;;4162749;28;20046;-81
2021/08/10 03:43:36;;;;;;;18.02;10.75;;;14.40;99.90;;;;;;4139827;28;20034;-79
2021/08/10 03:45:37;;;;;;;14.07;11.38;;;14.40;99.90;;;;;;4137251;28;20045;-80
2021/08/10 03:47:38;;;;;;;14.63;10.32;;;14.40;99.90;;;;;;4141633;28;20441;-81
2021/08/10 03:49:40;;;;;;;18.13;10.82;;;14.30;99.90;;;;;;4143145;28;20038;-80
2021/08/10 03:51:41;;;;;;;19.20;11.13;;;14.30;99.90;;;;;;4135292;28;20392;-80
2021/08/10 03:53:43;;;;;;;20.80;11.13;;;14.30;99.90;;;;;;4140806;28;20034;-80
2021/08/10 03:55:47;;;;;;;19.05;10.35;;;14.30;99.90;;;;;;4139758;28;20031;-80
2021/08/10 03:57:50;;;;;;;17.50;10.88;;;14.50;99.90;;;;;;4137951;28;20770;-80
2021/08/10 03:59:57;;;;;;;16.85;10.45;;;14.50;99.90;;;;;;4140317;28;20045;-80
2021/08/10 04:01:58;;;;;;;14.07;9.27;;;14.60;99.90;;;;;;4139050;28;20054;-81
2021/08/10 04:04:00;;;;;;;14.50;9.77;;;14.70;99.90;;;;;;4138671;28;20506;-80
2021/08/10 04:06:01;;;;;;;23.30;10.85;;;14.70;99.90;;;;;;4144276;28;20045;-80
2021/08/10 04:08:02;;;;;;;17.27;10.98;;;14.50;99.90;;;;;;4140464;28;20116;-78
2021/08/10 04:10:03;;;;;;;18.20;11.65;;;14.40;99.90;;;;;;4141795;28;20097;-80
2021/08/10 04:15:02;;;;;;;17.67;10.50;;;14.40;99.90;;;;;;4137198;28;20048;-78
2021/08/10 04:17:05;;;;;;;23.88;11.00;;;14.30;99.90;;;;;;4145342;28;20042;-80
2021/08/10 04:19:07;;;;;;;18.85;12.13;;;14.30;99.90;;;;;;4141875;28;20060;-80
2021/08/10 04:21:08;;;;;;;25.13;12.75;;;14.20;99.90;;;;;;4143075;28;20061;-81
2021/08/10 04:23:09;;;;;;;16.42;11.68;;;14.20;99.90;;;;;;4138730;28;20704;-79
2021/08/10 04:25:10;;;;;;;21.70;12.50;;;14.20;99.90;;;;;;4134577;28;20052;-80
2021/08/10 04:27:13;;;;;;;19.52;11.13;;;14.30;99.90;;;;;;4144360;28;20041;-80
2021/08/10 04:29:14;;;;;;;18.98;11.50;;;14.30;99.90;;;;;;4134994;28;20030;-80
2021/08/10 04:31:15;;;;;;;16.13;10.20;;;14.40;99.90;;;;;;4137784;28;20422;-77
2021/08/10 04:33:16;;;;;;;15.73;11.35;;;14.40;99.90;;;;;;4133216;28;20034;-80
2021/08/10 04:35:17;;;;;;;13.63;9.85;;;14.50;99.90;;;;;;4135713;28;20034;-80
2021/08/10 04:37:18;;;;;;;16.30;11.15;;;14.40;99.90;;;;;;4137671;28;20096;-80
2021/08/10 04:39:19;;;;;;;19.73;10.00;;;14.40;99.90;;;;;;4153799;28;20026;-80
2021/08/10 04:41:19;;;;;;;17.08;11.55;;;14.40;99.90;;;;;;4136915;28;20035;-79
2021/08/10 04:43:20;;;;;;;17.98;10.95;;;14.40;99.90;;;;;;4139094;28;20081;-79
2021/08/10 04:45:20;;;;;;;20.85;11.55;;;14.40;99.90;;;;;;4137435;28;20144;-80
2021/08/10 04:47:21;;;;;;;17.17;10.63;;;14.30;99.90;;;;;;4138054;28;20470;-80
2021/08/10 04:49:22;;;;;;;15.38;10.93;;;14.20;99.90;;;;;;4145477;28;20044;-80
2021/08/10 04:51:22;;;;;;;17.02;11.02;;;14.40;99.90;;;;;;4147125;28;20405;-78
2021/08/10 04:53:23;;;;;;;19.42;11.77;;;14.40;99.90;;;;;;4142775;28;20428;-80
2021/08/10 04:55:23;;;;;;;17.20;11.07;;;14.40;99.90;;;;;;4133604;28;20488;-80
2021/08/10 04:57:25;;;;;;;19.10;10.35;;;14.50;99.90;;;;;;4139655;28;20058;-81
2021/08/10 04:59:25;;;;;;;19.65;11.65;;;14.40;99.90;;;;;;4133040;28;20113;-81
2021/08/10 05:01:26;;;;;;;16.77;11.23;;;14.30;99.90;;;;;;4135728;28;20187;-81
2021/08/10 05:03:28;;;;;;;17.35;10.73;;;14.30;99.90;;;;;;4133727;28;20057;-80
2021/08/10 05:05:29;;;;;;;17.90;11.32;;;14.30;99.90;;;;;;4139670;28;20045;-81
2021/08/10 05:07:30;;;;;;;17.52;10.55;;;14.00;99.90;;;;;;4138262;28;20037;-80
2021/08/10 05:09:34;;;;;;;20.27;11.18;;;14.30;99.90;;;;;;4134138;28;20049;-80
2021/08/10 05:11:34;;;;;;;20.13;11.60;;;14.30;99.90;;;;;;4139865;28;20030;-81
2021/08/10 05:13:35;;;;;;;16.55;10.68;;;14.40;99.90;;;;;;4144207;28;20394;-80
2021/08/10 05:15:36;;;;;;;13.77;10.68;;;14.40;99.90;;;;;;4133085;28;20054;-80
2021/08/10 05:17:37;;;;;;;14.85;10.73;;;14.40;99.90;;;;;;4145600;28;20164;-81
2021/08/10 05:19:37;;;;;;;18.30;10.13;;;14.50;99.90;;;;;;4139463;28;20046;-81
2021/08/10 05:21:38;;;;;;;17.08;10.15;;;14.50;99.90;;;;;;4137400;28;20038;-80
2021/08/10 05:23:38;;;;;;;21.00;11.95;;;14.50;99.90;;;;;;4135719;28;20431;-81
2021/08/10 05:25:39;;;;;;;18.45;11.05;;;14.40;99.90;;;;;;4154481;28;20038;-80
2021/08/10 05:27:40;;;;;;;13.23;10.27;;;14.50;99.90;;;;;;4144138;28;20099;-80
2021/08/10 05:29:41;;;;;;;14.45;10.57;;;14.60;99.90;;;;;;4133336;28;20038;-81
2021/08/10 05:31:42;;;;;;;17.17;11.93;;;14.50;99.90;;;;;;4137521;28;20065;-80
2021/08/10 05:33:43;;;;;;;16.90;10.75;;;14.50;99.90;;;;;;4134580;28;20062;-81
2021/08/10 05:35:44;;;;;;;17.30;10.30;;;14.60;99.90;;;;;;4135927;28;20049;-81
2021/08/10 05:37:44;;;;;;;21.58;10.95;;;14.50;99.90;;;;;;4139597;28;20041;-81
2021/08/10 05:39:45;;;;;;;17.98;10.30;;;14.60;99.90;;;;;;4135773;28;20612;-80
2021/08/10 05:41:46;;;;;;;15.80;10.27;;;14.70;99.90;;;;;;4152103;28;20084;-80
2021/08/10 05:43:48;;;;;;;17.27;10.90;;;14.70;99.90;;;;;;4139838;28;20435;-81
2021/08/10 05:45:48;;;;;;;19.65;9.50;;;14.80;99.90;;;;;;4137598;28;20524;-80
2021/08/10 05:47:49;;;;;;;15.35;9.93;;;14.80;99.90;;;;;;4132496;28;20042;-81
2021/08/10 05:49:52;;;;;;;13.20;10.00;;;14.90;99.90;;;;;;4137713;28;20508;-80
2021/08/10 05:51:53;;;;;;;16.95;10.77;;;14.90;99.90;;;;;;4134784;28;20043;-80
2021/08/10 05:53:54;;;;;;;19.92;10.93;;;14.90;99.90;;;;;;4135506;28;20080;-80
2021/08/10 05:55:54;;;;;;;12.32;9.68;;;14.90;99.90;;;;;;4140190;28;20042;-79
2021/08/10 05:57:55;;;;;;;16.75;10.00;;;14.90;99.90;;;;;;4134644;28;20049;-80
2021/08/10 05:59:57;;;;;;;17.73;9.93;;;15.00;99.90;;;;;;4129805;28;20038;-80
2021/08/10 06:02:00;;;;;;;11.50;9.70;;;15.00;99.90;;;;;;4141966;28;20136;-80
2021/08/10 06:04:00;;;;;;;;;;;15.10;99.90;;;;;;4137856;28;20081;-81
2021/08/10 06:06:01;;;;;;;14.27;9.60;;;15.10;99.90;;;;;;4133282;28;19913;-78
2021/08/10 06:08:02;;;;;;;18.88;10.25;;;15.20;99.90;;;;;;4138750;28;20037;-79
2021/08/10 06:10:03;;;;;;;12.68;8.80;;;15.30;99.90;;;;;;4132393;28;20082;-79
2021/08/10 06:12:04;;;;;;;13.68;9.25;;;15.30;99.90;;;;;;4132729;28;20027;-80
2021/08/10 06:14:04;;;;;;;14.70;9.65;;;15.30;99.90;;;;;;4132031;28;20557;-80
2021/08/10 06:16:05;;;;;;;18.38;9.57;;;15.40;99.90;;;;;;4133117;28;20536;-80
2021/08/10 06:18:05;;;;;;;11.45;9.73;;;15.50;99.90;;;;;;4141806;28;20026;-80
2021/08/10 06:20:08;;;;;;;11.57;8.95;;;15.70;99.90;;;;;;4134033;28;20038;-79
2021/08/10 06:22:08;;;;;;;11.45;8.40;;;15.80;99.90;;;;;;4132435;28;20034;-80
2021/08/10 06:24:10;;;;;;;13.25;9.07;;;16.00;99.90;;;;;;4136038;28;20048;-80
2021/08/10 06:26:11;;;;;;;12.13;8.98;;;16.20;99.90;;;;;;4139211;28;20030;-80
2021/08/10 06:28:12;;;;;;;13.70;8.25;;;16.30;99.90;;;;;;4135480;28;20041;-79
2021/08/10 06:30:14;;;;;;;11.15;6.90;;;16.40;99.90;;;;;;4135874;28;20069;-80
2021/08/10 06:32:14;;;;;;;9.98;7.78;;;16.60;99.90;;;;;;4155196;28;20029;-81
2021/08/10 06:34:15;;;;;;;11.30;8.15;;;16.70;99.90;;;;;;4142300;28;20033;-78
2021/08/10 06:36:16;;;;;;;13.45;7.82;;;16.80;99.90;;;;;;4143291;28;20061;-81
2021/08/10 06:38:18;;;;;;;15.05;8.38;;;16.80;99.90;;;;;;4133991;28;20136;-81
2021/08/10 06:40:18;;;;;;;12.63;8.35;;;16.80;99.90;;;;;;4138224;28;20057;-80
2021/08/10 06:42:20;;;;;;;11.15;8.15;;;16.90;99.90;;;;;;4134325;28;20049;-79
2021/08/10 06:44:21;;;;;;;10.73;7.35;;;17.10;99.90;;;;;;4136406;28;20606;-80
2021/08/10 06:46:24;;;;;;;17.20;8.02;;;17.00;99.90;;;;;;4135813;28;20035;-81
2021/08/10 06:48:25;;;;;;;15.55;8.23;;;17.00;99.90;;;;;;4141374;28;20076;-81
2021/08/10 06:50:25;;;;;;;10.82;7.95;;;16.90;99.90;;;;;;4137613;28;20489;-80
2021/08/10 06:52:26;;;;;;;14.55;7.75;;;16.70;99.90;;;;;;4144239;28;20377;-79
2021/08/10 06:54:27;;;;;;;11.68;7.72;;;16.70;99.90;;;;;;4155648;28;20038;-80
2021/08/10 06:56:28;;;;;;;13.50;8.77;;;16.80;99.90;;;;;;4138383;28;20057;-80
2021/08/10 06:58:28;;;;;;;11.63;6.82;;;16.90;99.90;;;;;;4132395;28;20457;-80
2021/08/10 07:00:29;;;;;;;12.25;8.10;;;17.00;99.90;;;;;;4138635;28;20515;-81
2021/08/10 07:02:29;;;;;;;15.38;8.38;;;16.90;99.90;;;;;;4131411;28;20180;-81
2021/08/10 07:04:30;;;;;;;11.23;7.75;;;16.90;99.90;;;;;;4136527;28;20030;-78
2021/08/10 07:06:31;;;;;;;11.32;7.50;;;17.00;99.90;;;;;;4138979;28;20441;-80
2021/08/10 07:08:31;;;;;;;10.50;7.50;;;17.20;99.90;;;;;;4136100;28;20038;-78
2021/08/10 07:10:32;;;;;;;15.57;7.90;;;17.40;99.90;;;;;;4133451;28;20041;-79
2021/08/10 07:12:32;;;;;;;14.32;8.30;;;17.60;99.90;;;;;;4132041;28;20333;-80
2021/08/10 07:14:33;;;;;;;16.27;8.38;;;17.90;99.90;;;;;;4130652;28;20057;-81
2021/08/10 07:16:34;;;;;;;13.52;7.22;;;17.90;99.90;;;;;;4140919;28;20492;-80
2021/08/10 07:18:38;;;;;;;19.02;8.18;;;18.10;99.90;;;;;;4130421;28;20036;-79
2021/08/10 07:20:39;;;;;;;12.55;8.98;;;18.30;99.90;;;;;;4135203;28;20034;-80
2021/08/10 07:22:39;;;;;;;10.77;7.10;;;18.40;99.90;;;;;;4139025;28;20030;-80
2021/08/10 07:24:40;;;;;;;13.48;8.00;;;18.50;99.90;;;;;;4135389;28;20168;-80
2021/08/10 07:26:41;;;;;;;12.15;6.82;;;18.60;99.90;;;;;;4132786;28;20141;-78
2021/08/10 07:28:42;;;;;;;12.68;8.00;;;18.70;99.90;;;;;;4134314;28;20046;-80
2021/08/10 07:30:42;;;;;;;14.60;8.20;;;18.80;99.90;;;;;;4131177;28;20034;-79
2021/08/10 07:32:43;;;;;;;15.80;7.10;;;18.80;99.90;;;;;;4143326;28;20030;-79
2021/08/10 07:34:44;;;;;;;14.73;7.75;;;18.70;99.90;;;;;;4138640;28;20050;-79
2021/08/10 07:36:44;;;;;;;12.85;8.55;;;18.70;99.90;;;;;;4131813;28;20107;-80
2021/08/10 07:38:46;;;;;;;11.85;7.78;;;18.70;99.90;;;;;;4138488;28;20392;-81
2021/08/10 07:40:46;;;;;;;13.40;7.78;;;18.60;99.90;;;;;;4140334;28;20053;-80
2021/08/10 07:42:48;;;;;;;20.67;9.43;;;18.60;99.90;;;;;;4138410;28;20038;-81
2021/08/10 07:44:48;;;;;;;14.63;9.50;;;18.50;99.90;;;;;;4142015;28;20069;-80
2021/08/10 07:46:49;;;;;;;12.48;7.78;;;18.40;99.90;;;;;;4133115;28;20042;-81
2021/08/10 07:48:50;;;;;;;15.00;8.27;;;18.20;99.90;;;;;;4130823;28;20046;-81
2021/08/10 07:50:51;;;;;;;14.85;8.63;;;18.20;99.90;;;;;;4143128;28;20033;-80
2021/08/10 07:52:52;;;;;;;12.23;7.50;;;18.20;99.90;;;;;;4138069;28;20053;-80
2021/08/10 07:54:53;;;;;;;13.05;7.65;;;18.20;99.90;;;;;;4143848;28;20034;-79
2021/08/10 07:56:54;;;;;;;11.45;7.45;;;18.50;99.90;;;;;;4142916;28;20058;-80
2021/08/10 07:58:54;;;;;;;13.60;8.40;;;18.60;99.90;;;;;;4130298;28;20097;-78
2021/08/10 08:00:55;;;;;;;13.10;6.50;;;18.60;99.90;;;;;;4132336;28;20383;-79
2021/08/10 08:02:55;;;;;;;12.55;7.03;;;18.50;99.90;;;;;;4141663;28;20042;-79
2021/08/10 08:04:56;;;;;;;13.88;7.35;;;18.60;99.90;;;;;;4138007;28;20121;-80
2021/08/10 08:06:56;;;;;;;14.13;7.70;;;18.90;99.90;;;;;;4133061;28;20077;-81
2021/08/10 08:08:57;;;;;;;10.57;6.70;;;19.00;99.90;;;;;;4138327;28;20473;-80
2021/08/10 08:10:58;;;;;;;15.45;6.95;;;19.10;99.90;;;;;;4130457;28;20062;-80
2021/08/10 08:12:59;;;;;;;11.70;6.35;;;19.20;99.90;;;;;;4135037;28;20038;-80
2021/08/10 08:15:00;;;;;;;10.88;5.85;;;19.30;99.90;;;;;;4134563;28;20117;-80
2021/08/10 08:17:00;;;;;;;11.32;5.72;;;19.50;99.90;;;;;;4138844;28;20043;-81
2021/08/10 08:19:01;;;;;;;17.73;6.45;;;19.60;99.90;;;;;;4150709;28;20084;-81
2021/08/10 08:21:01;;;;;;;5.50;4.45;;;19.30;99.90;;;;;;4133051;28;20145;-80
2021/08/10 08:23:02;;;;;;;9.85;5.70;;;19.40;99.90;;;;;;4135418;28;20022;-80
2021/08/10 08:25:04;;;;;;;7.88;5.25;;;19.50;99.90;;;;;;4142250;28;20034;-81
2021/08/10 08:27:05;;;;;;;9.45;5.35;;;19.40;99.90;;;;;;4154143;28;20034;-81
2021/08/10 08:29:05;;;;;;;10.30;4.90;;;19.60;99.90;;;;;;4149847;28;20064;-79
2021/08/10 08:31:06;;;;;;;7.53;4.93;;;19.70;99.90;;;;;;4136782;28;20027;-79
2021/08/10 08:33:08;;;;;;;8.48;5.65;;;20.00;99.90;;;;;;4147339;28;20038;-80
2021/08/10 08:35:08;;;;;;;9.13;5.22;;;20.30;99.90;;;;;;4136312;28;20105;-80
2021/08/10 08:37:10;;;;;;;8.13;5.20;;;20.30;99.90;;;;;;4143303;28;20038;-80
2021/08/10 08:39:10;;;;;;;8.32;4.78;;;20.30;99.90;;;;;;4143779;28;20444;-79
2021/08/10 08:41:14;;;;;;;12.13;5.70;;;20.10;99.90;;;;;;4137538;28;20030;-79
2021/08/10 08:43:19;;;;;;;10.93;5.55;;;19.90;99.90;;;;;;4152200;28;20440;-80
2021/08/10 08:45:19;;;;;;;8.30;5.38;;;19.70;99.90;;;;;;4135033;28;21149;-79
2021/08/10 08:47:22;;;;;;;9.35;4.97;;;19.50;99.90;;;;;;4144222;28;20037;-80
2021/08/10 08:49:25;;;;;;;7.15;4.10;;;19.70;99.90;;;;;;4145740;28;20115;-81
2021/08/10 08:51:26;;;;;;;;;;;20.00;99.90;;;;;;4143663;28;20105;-80
2021/08/10 08:53:28;;;;;;;10.20;5.20;;;20.20;99.90;;;;;;4134979;28;19959;-80
2021/08/10 08:55:29;;;;;;;13.63;8.32;;;20.00;99.90;;;;;;4142836;28;20053;-81
2021/08/10 08:57:30;;;;;;;13.13;6.85;;;19.80;99.90;;;;;;4145041;28;20093;-80
2021/08/10 08:59:31;;;;;;;10.57;5.88;;;19.70;99.90;;;;;;4134511;28;20533;-80
2021/08/10 09:01:31;;;;;;;7.57;4.80;;;19.90;99.90;;;;;;4137463;28;20062;-80
2021/08/10 09:03:33;;;;;;;8.02;5.10;;;20.10;99.90;;;;;;4141106;28;20098;-81
2021/08/10 09:05:37;;;;;;;6.75;4.95;;;20.10;99.90;;;;;;4140688;28;20061;-81
2021/08/10 09:07:38;;;;;;;7.85;4.28;;;20.00;99.90;;;;;;4155275;28;20050;-81
2021/08/10 09:09:39;;;;;;;10.70;5.63;;;20.00;99.90;;;;;;4139199;28;20034;-81
2021/08/10 09:11:48;;;;;;;8.77;4.85;;;21.10;99.90;;;;;;4154186;28;20486;-80
2021/08/10 09:13:56;;;;;;;11.23;5.32;;;;;;;;;;4142433;28;20042;-80
2021/08/10 09:16:05;;;;;;;8.90;5.07;;;21.90;99.90;;;;;;4138975;28;20450;-80
2021/08/10 09:18:23;;;;;;;6.55;4.72;;;22.20;99.90;;;;;;4140031;28;20426;-80
2021/08/10 09:20:24;;;;;;;10.75;5.05;;;21.70;99.90;;;;;;4134826;28;20039;-80
2021/08/10 09:22:31;;;;;;;7.07;4.50;;;21.50;99.90;;;;;;4136441;28;20867;-79
2021/08/10 09:25:03;;;;;;;8.07;4.90;;;21.40;99.90;;;;;;4137277;28;20064;-80
2021/08/10 09:27:04;;;;;;;7.60;4.18;;;21.50;99.90;;;;;;4144009;28;20038;-80
2021/08/10 09:29:05;;;;;;;6.80;3.80;;;21.40;99.90;;;;;;4136231;28;20038;-80
2021/08/10 09:31:47;;;;;;;7.20;4.07;;;21.10;99.90;;;;;;4139180;28;20060;-81
2021/08/10 09:33:47;;;;;;;8.80;4.78;;;20.60;99.90;;;;;;4130723;28;20078;-80
2021/08/10 09:35:49;;;;;;;8.15;4.28;;;20.50;99.90;;;;;;4141204;28;20054;-80
2021/08/10 09:38:04;;;;;;;7.13;4.43;;;21.00;99.90;;;;;;4136527;28;20054;-80
2021/08/10 09:40:27;;;;;;;9.02;4.18;;;21.60;99.90;;;;;;4143744;28;20091;-79
2021/08/10 09:42:28;;;;;;;14.70;9.35;;;22.10;99.90;;;;;;4138616;28;20501;-80
2021/08/10 09:44:29;;;;;;;9.05;4.60;;;22.30;99.90;;;;;;4145758;28;20038;-80
2021/08/10 09:46:29;;;;;;;7.43;4.05;;;22.10;99.90;;;;;;4139670;28;20037;-81
2021/08/10 09:48:30;;;;;;;6.95;3.88;;;21.90;99.90;;;;;;4139719;28;20084;-81
2021/08/10 09:50:31;;;;;;;6.70;4.00;;;21.70;99.90;;;;;;4136934;28;20498;-80
2021/08/10 09:52:34;;;;;;;6.05;4.05;;;21.30;99.90;;;;;;4139313;28;20080;-80
2021/08/10 09:54:35;;;;;;;9.18;4.18;;;20.90;99.90;;;;;;4134303;28;20569;-80
2021/08/10 09:56:49;;;;;;;7.72;4.07;;;20.60;99.90;;;;;;4133523;28;20113;-80
2021/08/10 09:59:00;;;;;;;8.52;5.25;;;20.20;99.90;;;;;;4140699;28;20072;-80
2021/08/10 10:01:01;;;;;;;7.28;5.10;;;19.70;99.90;;;;;;4149249;28;20029;-80
2021/08/10 10:03:22;;;;;;;7.60;5.28;;;19.20;99.90;;;;;;4139485;28;20524;-80
2021/08/10 10:05:40;;;;;;;8.25;4.70;;;18.80;99.90;;;;;;4143672;28;20057;-80
2021/08/10 10:08:15;;;;;;;13.45;5.63;;;18.60;99.90;;;;;;4142720;28;20038;-79
2021/08/10 10:10:15;;;;;;;8.60;4.97;;;18.70;99.90;;;;;;4141152;28;20113;-81
2021/08/10 10:12:19;;;;;;;8.07;4.75;;;18.90;99.90;;;;;;4145683;28;20056;-77
2021/08/10 10:14:22;;;;;;;6.13;4.38;;;19.30;99.90;;;;;;4139579;28;20069;-80
2021/08/10 10:16:22;;;;;;;13.57;5.82;;;19.30;99.90;;;;;;4144588;28;20121;-80
2021/08/10 10:18:25;;;;;;;6.18;4.10;;;19.60;99.90;;;;;;4135296;28;20504;-80
2021/08/10 10:20:26;;;;;;;5.90;3.88;;;20.10;99.90;;;;;;4141258;28;20042;-79
2021/08/10 10:22:28;;;;;;;5.50;3.97;;;20.60;99.90;;;;;;4146260;28;20045;-80
2021/08/10 10:24:34;;;;;;;6.47;4.78;;;20.90;99.90;;;;;;4141963;28;20536;-79
2021/08/10 10:26:41;;;;;;;7.47;4.07;;;21.00;99.90;;;;;;4144277;28;20033;-79
2021/08/10 10:28:43;;;;;;;6.68;4.00;;;20.90;99.90;;;;;;4138185;28;20077;-80
2021/08/10 10:30:46;;;;;;;10.07;4.35;;;21.20;99.90;;;;;;4152125;28;20474;-80
2021/08/10 10:32:46;;;;;;;7.60;4.18;;;21.40;99.90;;;;;;4134425;28;20034;-80
2021/08/10 10:34:48;;;;;;;9.30;4.18;;;21.80;99.90;;;;;;4134679;28;20038;-80